sensor_id;sensor_type;location;lat;lon;timestamp;pressure;altitude;pressure_sealevel;temperature;humidity
68822;BME280;55834;50.870;4.606;2024-02-16T00:00:39;100249.22;;;12.21;48.72
68822;BME280;55834;50.870;4.606;2024-02-16T00:03:04;100251.69;;;12.26;48.59
68822;BME280;55834;50.870;4.606;2024-02-16T00:05:30;100254.50;;;12.41;48.02
68822;BME280;55834;50.870;4.606;2024-02-16T00:07:55;100253.50;;;12.44;47.72
68822;BME280;55834;50.870;4.606;2024-02-16T00:10:20;100261.53;;;12.42;47.89
68822;BME280;55834;50.870;4.606;2024-02-16T00:12:47;100252.66;;;12.43;47.82
68822;BME280;55834;50.870;4.606;2024-02-16T00:15:12;100262.13;;;12.49;48.15
68822;BME280;55834;50.870;4.606;2024-02-16T00:17:38;100260.88;;;12.37;47.64
68822;BME280;55834;50.870;4.606;2024-02-16T00:20:04;100252.75;;;12.42;48.21
68822;BME280;55834;50.870;4.606;2024-02-16T00:22:32;100246.94;;;12.53;47.76
68822;BME280;55834;50.870;4.606;2024-02-16T00:24:58;100243.78;;;12.45;47.29
68822;BME280;55834;50.870;4.606;2024-02-16T00:27:23;100243.41;;;12.54;47.81
68822;BME280;55834;50.870;4.606;2024-02-16T00:29:48;100244.25;;;12.54;47.79
68822;BME280;55834;50.870;4.606;2024-02-16T00:32:14;100247.50;;;12.40;47.74
68822;BME280;55834;50.870;4.606;2024-02-16T00:34:40;100240.81;;;12.11;48.33
68822;BME280;55834;50.870;4.606;2024-02-16T00:37:06;100239.56;;;12.20;49.10
68822;BME280;55834;50.870;4.606;2024-02-16T00:39:36;100248.19;;;12.25;48.70
68822;BME280;55834;50.870;4.606;2024-02-16T00:42:02;100239.75;;;12.36;48.45
68822;BME280;55834;50.870;4.606;2024-02-16T00:44:28;100246.25;;;12.29;48.66
68822;BME280;55834;50.870;4.606;2024-02-16T00:46:53;100237.84;;;12.39;48.54
68822;BME280;55834;50.870;4.606;2024-02-16T00:49:19;100241.69;;;12.32;47.89
68822;BME280;55834;50.870;4.606;2024-02-16T00:51:44;100232.34;;;12.44;48.25
68822;BME280;55834;50.870;4.606;2024-02-16T00:54:09;100239.75;;;12.36;48.32
68822;BME280;55834;50.870;4.606;2024-02-16T00:56:35;100241.00;;;12.27;48.40
68822;BME280;55834;50.870;4.606;2024-02-16T00:59:00;100238.72;;;12.19;48.94
68822;BME280;55834;50.870;4.606;2024-02-16T01:01:26;100242.88;;;12.25;49.01
68822;BME280;55834;50.870;4.606;2024-02-16T01:03:52;100240.94;;;12.29;48.25
68822;BME280;55834;50.870;4.606;2024-02-16T01:06:18;100239.75;;;12.15;48.81
68822;BME280;55834;50.870;4.606;2024-02-16T01:08:44;100240.91;;;12.30;48.83
68822;BME280;55834;50.870;4.606;2024-02-16T01:11:10;100243.34;;;12.35;48.56
68822;BME280;55834;50.870;4.606;2024-02-16T01:13:35;100237.72;;;12.42;48.72
68822;BME280;55834;50.870;4.606;2024-02-16T01:16:02;100235.78;;;12.46;48.29
68822;BME280;55834;50.870;4.606;2024-02-16T01:18:29;100239.66;;;12.39;48.28
68822;BME280;55834;50.870;4.606;2024-02-16T01:20:55;100233.47;;;12.38;48.54
68822;BME280;55834;50.870;4.606;2024-02-16T01:23:21;100232.75;;;12.35;48.37
68822;BME280;55834;50.870;4.606;2024-02-16T01:25:46;100223.81;;;12.37;48.34
68822;BME280;55834;50.870;4.606;2024-02-16T01:28:12;100233.94;;;12.28;48.75
68822;BME280;55834;50.870;4.606;2024-02-16T01:30:38;100233.56;;;12.16;49.33
68822;BME280;55834;50.870;4.606;2024-02-16T01:33:05;100237.38;;;12.09;48.94
68822;BME280;55834;50.870;4.606;2024-02-16T01:35:31;100228.31;;;12.15;49.62
68822;BME280;55834;50.870;4.606;2024-02-16T01:37:57;100225.53;;;11.97;49.13
68822;BME280;55834;50.870;4.606;2024-02-16T01:40:22;100225.59;;;11.96;49.99
68822;BME280;55834;50.870;4.606;2024-02-16T01:42:51;100228.13;;;11.99;49.94
68822;BME280;55834;50.870;4.606;2024-02-16T01:45:18;100227.84;;;11.85;50.48
68822;BME280;55834;50.870;4.606;2024-02-16T01:47:44;100229.16;;;11.95;50.48
68822;BME280;55834;50.870;4.606;2024-02-16T01:50:12;100230.63;;;12.02;50.30
68822;BME280;55834;50.870;4.606;2024-02-16T01:52:38;100218.38;;;12.00;50.32
68822;BME280;55834;50.870;4.606;2024-02-16T01:55:04;100219.66;;;12.11;49.90
68822;BME280;55834;50.870;4.606;2024-02-16T01:57:31;100227.72;;;12.08;50.32
68822;BME280;55834;50.870;4.606;2024-02-16T01:59:57;100224.00;;;12.12;49.84
68822;BME280;55834;50.870;4.606;2024-02-16T02:02:22;100220.84;;;12.25;49.58
68822;BME280;55834;50.870;4.606;2024-02-16T02:04:48;100225.53;;;12.18;49.94
68822;BME280;55834;50.870;4.606;2024-02-16T02:07:14;100222.31;;;12.11;50.29
68822;BME280;55834;50.870;4.606;2024-02-16T02:09:40;100230.19;;;12.13;49.80
68822;BME280;55834;50.870;4.606;2024-02-16T02:12:06;100217.81;;;12.13;50.17
68822;BME280;55834;50.870;4.606;2024-02-16T02:14:31;100207.28;;;12.12;49.93
68822;BME280;55834;50.870;4.606;2024-02-16T02:16:56;100211.41;;;12.19;50.40
68822;BME280;55834;50.870;4.606;2024-02-16T02:19:22;100217.81;;;12.13;50.19
68822;BME280;55834;50.870;4.606;2024-02-16T02:21:47;100206.09;;;12.19;50.07
68822;BME280;55834;50.870;4.606;2024-02-16T02:24:12;100205.75;;;12.06;50.34
68822;BME280;55834;50.870;4.606;2024-02-16T02:26:39;100200.94;;;12.16;50.14
68822;BME280;55834;50.870;4.606;2024-02-16T02:29:04;100197.66;;;12.30;49.93
68822;BME280;55834;50.870;4.606;2024-02-16T02:31:30;100200.69;;;12.02;50.63
68822;BME280;55834;50.870;4.606;2024-02-16T02:33:55;100201.72;;;11.97;50.59
68822;BME280;55834;50.870;4.606;2024-02-16T02:36:21;100192.78;;;12.20;50.51
68822;BME280;55834;50.870;4.606;2024-02-16T02:38:47;100193.44;;;12.26;49.99
68822;BME280;55834;50.870;4.606;2024-02-16T02:41:12;100197.28;;;12.18;50.13
68822;BME280;55834;50.870;4.606;2024-02-16T02:43:41;100195.03;;;12.30;49.94
68822;BME280;55834;50.870;4.606;2024-02-16T02:46:07;100203.50;;;11.97;50.69
68822;BME280;55834;50.870;4.606;2024-02-16T02:48:32;100197.34;;;12.17;50.88
68822;BME280;55834;50.870;4.606;2024-02-16T02:50:58;100207.34;;;11.90;51.18
68822;BME280;55834;50.870;4.606;2024-02-16T02:53:27;100189.47;;;12.15;50.88
68822;BME280;55834;50.870;4.606;2024-02-16T02:55:53;100197.28;;;11.98;50.64
68822;BME280;55834;50.870;4.606;2024-02-16T02:58:18;100200.63;;;11.61;52.18
68822;BME280;55834;50.870;4.606;2024-02-16T03:00:44;100198.84;;;11.61;52.94
68822;BME280;55834;50.870;4.606;2024-02-16T03:03:10;100195.38;;;12.02;51.73
68822;BME280;55834;50.870;4.606;2024-02-16T03:05:35;100194.63;;;11.98;51.76
68822;BME280;55834;50.870;4.606;2024-02-16T03:08:00;100201.72;;;11.97;51.78
68822;BME280;55834;50.870;4.606;2024-02-16T03:10:27;100195.25;;;12.25;51.28
68822;BME280;55834;50.870;4.606;2024-02-16T03:12:56;100201.66;;;12.19;50.88
68822;BME280;55834;50.870;4.606;2024-02-16T03:15:21;100197.75;;;11.43;52.71
68822;BME280;55834;50.870;4.606;2024-02-16T03:17:47;100203.50;;;11.77;52.62
68822;BME280;55834;50.870;4.606;2024-02-16T03:20:12;100199.78;;;11.81;51.82
68822;BME280;55834;50.870;4.606;2024-02-16T03:22:38;100195.69;;;11.94;51.75
68822;BME280;55834;50.870;4.606;2024-02-16T03:25:03;100200.34;;;11.45;53.02
68822;BME280;55834;50.870;4.606;2024-02-16T03:27:30;100192.22;;;11.71;52.39
68822;BME280;55834;50.870;4.606;2024-02-16T03:29:55;100185.09;;;11.73;52.59
68822;BME280;55834;50.870;4.606;2024-02-16T03:32:21;100191.72;;;11.84;52.04
68822;BME280;55834;50.870;4.606;2024-02-16T03:34:46;100197.59;;;11.48;52.80
68822;BME280;55834;50.870;4.606;2024-02-16T03:37:12;100192.06;;;11.76;52.47
68822;BME280;55834;50.870;4.606;2024-02-16T03:39:37;100189.75;;;11.89;52.66
68822;BME280;55834;50.870;4.606;2024-02-16T03:42:03;100201.00;;;11.94;52.35
68822;BME280;55834;50.870;4.606;2024-02-16T03:44:28;100186.81;;;11.74;53.10
68822;BME280;55834;50.870;4.606;2024-02-16T03:46:53;100194.97;;;11.70;53.15
68822;BME280;55834;50.870;4.606;2024-02-16T03:49:19;100196.06;;;11.42;53.44
68822;BME280;55834;50.870;4.606;2024-02-16T03:51:44;100191.13;;;11.33;54.10
68822;BME280;55834;50.870;4.606;2024-02-16T03:54:11;100190.34;;;11.53;54.02
68822;BME280;55834;50.870;4.606;2024-02-16T03:56:36;100183.19;;;11.77;53.62
68822;BME280;55834;50.870;4.606;2024-02-16T03:59:01;100180.09;;;11.67;52.96
68822;BME280;55834;50.870;4.606;2024-02-16T04:01:28;100185.13;;;11.94;52.76
68822;BME280;55834;50.870;4.606;2024-02-16T04:03:55;100188.19;;;11.41;54.17
68822;BME280;55834;50.870;4.606;2024-02-16T04:06:21;100192.47;;;11.43;54.46
68822;BME280;55834;50.870;4.606;2024-02-16T04:08:46;100193.03;;;11.73;53.28
68822;BME280;55834;50.870;4.606;2024-02-16T04:11:14;100196.34;;;11.13;54.96
68822;BME280;55834;50.870;4.606;2024-02-16T04:13:40;100199.28;;;11.05;55.05
68822;BME280;55834;50.870;4.606;2024-02-16T04:16:06;100201.03;;;11.50;54.15
68822;BME280;55834;50.870;4.606;2024-02-16T04:18:31;100194.06;;;11.25;54.81
68822;BME280;55834;50.870;4.606;2024-02-16T04:20:57;100194.00;;;11.49;54.90
68822;BME280;55834;50.870;4.606;2024-02-16T04:23:22;100193.66;;;11.36;54.39
68822;BME280;55834;50.870;4.606;2024-02-16T04:25:47;100200.34;;;11.23;54.91
68822;BME280;55834;50.870;4.606;2024-02-16T04:28:13;100193.78;;;11.55;54.39
68822;BME280;55834;50.870;4.606;2024-02-16T04:30:39;100192.91;;;11.77;54.42
68822;BME280;55834;50.870;4.606;2024-02-16T04:33:04;100190.28;;;11.97;53.15
68822;BME280;55834;50.870;4.606;2024-02-16T04:35:30;100204.44;;;11.96;53.26
68822;BME280;55834;50.870;4.606;2024-02-16T04:37:55;100215.63;;;11.60;54.04
68822;BME280;55834;50.870;4.606;2024-02-16T04:40:20;100216.16;;;11.68;53.28
68822;BME280;55834;50.870;4.606;2024-02-16T04:42:46;100214.25;;;11.28;54.92
68822;BME280;55834;50.870;4.606;2024-02-16T04:45:12;100213.22;;;11.76;54.15
68822;BME280;55834;50.870;4.606;2024-02-16T04:47:38;100214.03;;;11.99;53.19
68822;BME280;55834;50.870;4.606;2024-02-16T04:50:05;100226.88;;;11.65;54.05
68822;BME280;55834;50.870;4.606;2024-02-16T04:52:30;100234.00;;;11.63;54.52
68822;BME280;55834;50.870;4.606;2024-02-16T04:54:56;100243.47;;;11.47;54.77
68822;BME280;55834;50.870;4.606;2024-02-16T04:57:21;100231.81;;;11.51;54.60
68822;BME280;55834;50.870;4.606;2024-02-16T04:59:47;100233.00;;;11.66;54.67
68822;BME280;55834;50.870;4.606;2024-02-16T05:02:12;100240.91;;;11.67;54.59
68822;BME280;55834;50.870;4.606;2024-02-16T05:04:38;100237.56;;;11.62;54.47
68822;BME280;55834;50.870;4.606;2024-02-16T05:07:04;100245.47;;;11.64;54.61
68822;BME280;55834;50.870;4.606;2024-02-16T05:09:32;100250.00;;;11.37;55.05
68822;BME280;55834;50.870;4.606;2024-02-16T05:11:57;100249.56;;;11.25;55.69
68822;BME280;55834;50.870;4.606;2024-02-16T05:14:23;100251.22;;;11.73;54.26
68822;BME280;55834;50.870;4.606;2024-02-16T05:16:49;100250.06;;;11.59;54.96
68822;BME280;55834;50.870;4.606;2024-02-16T05:19:15;100244.69;;;11.38;55.62
68822;BME280;55834;50.870;4.606;2024-02-16T05:21:40;100244.56;;;11.85;54.43
68822;BME280;55834;50.870;4.606;2024-02-16T05:24:06;100224.53;;;12.00;54.17
68822;BME280;55834;50.870;4.606;2024-02-16T05:26:31;100230.66;;;11.80;54.64
68822;BME280;55834;50.870;4.606;2024-02-16T05:28:57;100240.97;;;11.86;54.32
68822;BME280;55834;50.870;4.606;2024-02-16T05:31:22;100243.44;;;11.91;54.33
68822;BME280;55834;50.870;4.606;2024-02-16T05:33:49;100245.28;;;11.89;54.40
68822;BME280;55834;50.870;4.606;2024-02-16T05:36:21;100245.81;;;11.77;54.63
68822;BME280;55834;50.870;4.606;2024-02-16T05:38:50;100256.94;;;11.85;54.75
68822;BME280;55834;50.870;4.606;2024-02-16T05:41:17;100259.13;;;11.51;55.23
68822;BME280;55834;50.870;4.606;2024-02-16T05:43:43;100258.19;;;11.76;54.97
68822;BME280;55834;50.870;4.606;2024-02-16T05:46:16;100253.38;;;12.06;54.29
68822;BME280;55834;50.870;4.606;2024-02-16T05:48:42;100256.59;;;11.48;55.65
68822;BME280;55834;50.870;4.606;2024-02-16T05:51:08;100273.75;;;11.62;55.57
68822;BME280;55834;50.870;4.606;2024-02-16T05:53:34;100252.50;;;11.41;56.11
68822;BME280;55834;50.870;4.606;2024-02-16T05:56:00;100267.72;;;11.58;55.58
68822;BME280;55834;50.870;4.606;2024-02-16T05:58:25;100264.91;;;11.83;55.19
68822;BME280;55834;50.870;4.606;2024-02-16T06:00:51;100275.38;;;11.86;55.66
68822;BME280;55834;50.870;4.606;2024-02-16T06:03:16;100274.59;;;11.84;54.87
68822;BME280;55834;50.870;4.606;2024-02-16T06:05:42;100276.09;;;11.69;55.88
68822;BME280;55834;50.870;4.606;2024-02-16T06:08:10;100285.53;;;11.75;55.35
68822;BME280;55834;50.870;4.606;2024-02-16T06:10:35;100295.63;;;11.42;56.31
68822;BME280;55834;50.870;4.606;2024-02-16T06:13:01;100288.38;;;11.70;55.74
68822;BME280;55834;50.870;4.606;2024-02-16T06:15:26;100294.22;;;11.79;56.09
68822;BME280;55834;50.870;4.606;2024-02-16T06:17:52;100294.75;;;11.65;56.38
68822;BME280;55834;50.870;4.606;2024-02-16T06:20:17;100298.06;;;11.92;55.94
68822;BME280;55834;50.870;4.606;2024-02-16T06:22:43;100305.34;;;11.87;56.03
68822;BME280;55834;50.870;4.606;2024-02-16T06:25:09;100313.63;;;11.78;56.70
68822;BME280;55834;50.870;4.606;2024-02-16T06:27:35;100318.75;;;12.04;55.99
68822;BME280;55834;50.870;4.606;2024-02-16T06:30:01;100316.53;;;11.93;56.61
68822;BME280;55834;50.870;4.606;2024-02-16T06:32:26;100323.69;;;11.69;57.22
68822;BME280;55834;50.870;4.606;2024-02-16T06:34:53;100329.81;;;11.92;56.99
68822;BME280;55834;50.870;4.606;2024-02-16T06:37:19;100334.81;;;12.00;57.18
68822;BME280;55834;50.870;4.606;2024-02-16T06:39:44;100329.09;;;11.88;56.56
68822;BME280;55834;50.870;4.606;2024-02-16T06:42:10;100329.38;;;11.81;58.32
68822;BME280;55834;50.870;4.606;2024-02-16T06:44:38;100339.50;;;11.93;57.16
68822;BME280;55834;50.870;4.606;2024-02-16T06:47:04;100336.88;;;11.91;57.19
68822;BME280;55834;50.870;4.606;2024-02-16T06:49:29;100328.41;;;12.05;56.77
68822;BME280;55834;50.870;4.606;2024-02-16T06:51:55;100338.72;;;12.33;56.15
68822;BME280;55834;50.870;4.606;2024-02-16T06:54:20;100349.47;;;12.29;56.00
68822;BME280;55834;50.870;4.606;2024-02-16T06:56:46;100345.25;;;12.25;56.50
68822;BME280;55834;50.870;4.606;2024-02-16T06:59:11;100339.78;;;12.07;56.24
68822;BME280;55834;50.870;4.606;2024-02-16T07:01:36;100353.16;;;12.04;57.03
68822;BME280;55834;50.870;4.606;2024-02-16T07:04:02;100344.75;;;12.15;56.40
68822;BME280;55834;50.870;4.606;2024-02-16T07:06:27;100354.34;;;12.17;56.18
68822;BME280;55834;50.870;4.606;2024-02-16T07:08:53;100357.88;;;12.38;55.71
68822;BME280;55834;50.870;4.606;2024-02-16T07:11:19;100370.88;;;12.45;55.45
68822;BME280;55834;50.870;4.606;2024-02-16T07:13:46;100370.00;;;12.44;56.09
68822;BME280;55834;50.870;4.606;2024-02-16T07:16:11;100380.34;;;12.50;55.21
68822;BME280;55834;50.870;4.606;2024-02-16T07:18:37;100393.06;;;12.20;56.69
68822;BME280;55834;50.870;4.606;2024-02-16T07:21:03;100389.03;;;11.66;57.58
68822;BME280;55834;50.870;4.606;2024-02-16T07:23:29;100387.28;;;11.88;57.78
68822;BME280;55834;50.870;4.606;2024-02-16T07:25:55;100395.41;;;12.28;56.55
68822;BME280;55834;50.870;4.606;2024-02-16T07:28:22;100398.72;;;12.33;56.94
68822;BME280;55834;50.870;4.606;2024-02-16T07:30:48;100395.50;;;11.81;57.91
68822;BME280;55834;50.870;4.606;2024-02-16T07:33:13;100401.69;;;12.03;57.28
68822;BME280;55834;50.870;4.606;2024-02-16T07:35:38;100402.94;;;12.16;56.92
68822;BME280;55834;50.870;4.606;2024-02-16T07:38:04;100399.94;;;12.24;56.97
68822;BME280;55834;50.870;4.606;2024-02-16T07:40:30;100417.00;;;12.17;56.77
68822;BME280;55834;50.870;4.606;2024-02-16T07:42:58;100427.72;;;12.58;56.42
68822;BME280;55834;50.870;4.606;2024-02-16T07:45:24;100431.44;;;12.52;55.73
68822;BME280;55834;50.870;4.606;2024-02-16T07:47:50;100433.41;;;12.47;56.02
68822;BME280;55834;50.870;4.606;2024-02-16T07:50:20;100436.88;;;12.71;55.53
68822;BME280;55834;50.870;4.606;2024-02-16T07:52:46;100442.47;;;12.41;55.88
68822;BME280;55834;50.870;4.606;2024-02-16T07:55:11;100441.75;;;12.38;57.13
68822;BME280;55834;50.870;4.606;2024-02-16T07:57:37;100442.06;;;12.08;56.96
68822;BME280;55834;50.870;4.606;2024-02-16T08:00:04;100444.94;;;12.24;56.67
68822;BME280;55834;50.870;4.606;2024-02-16T08:02:29;100446.09;;;11.95;57.54
68822;BME280;55834;50.870;4.606;2024-02-16T08:04:55;100456.44;;;12.01;57.10
68822;BME280;55834;50.870;4.606;2024-02-16T08:07:20;100469.72;;;12.00;58.42
68822;BME280;55834;50.870;4.606;2024-02-16T08:09:46;100459.41;;;11.93;57.99
68822;BME280;55834;50.870;4.606;2024-02-16T08:12:12;100469.16;;;12.37;57.44
68822;BME280;55834;50.870;4.606;2024-02-16T08:14:40;100468.88;;;11.99;57.90
68822;BME280;55834;50.870;4.606;2024-02-16T08:17:09;100471.38;;;12.48;56.75
68822;BME280;55834;50.870;4.606;2024-02-16T08:19:36;100471.03;;;12.55;57.40
68822;BME280;55834;50.870;4.606;2024-02-16T08:22:07;100474.34;;;12.62;55.92
68822;BME280;55834;50.870;4.606;2024-02-16T08:24:36;100472.31;;;12.69;56.40
68822;BME280;55834;50.870;4.606;2024-02-16T08:27:02;100479.28;;;12.71;56.83
68822;BME280;55834;50.870;4.606;2024-02-16T08:29:29;100485.56;;;12.69;56.91
68822;BME280;55834;50.870;4.606;2024-02-16T08:31:56;100499.00;;;12.40;58.76
68822;BME280;55834;50.870;4.606;2024-02-16T08:34:21;100497.63;;;11.85;60.67
68822;BME280;55834;50.870;4.606;2024-02-16T08:36:48;100497.84;;;12.26;60.86
68822;BME280;55834;50.870;4.606;2024-02-16T08:39:14;100503.91;;;12.06;60.56
68822;BME280;55834;50.870;4.606;2024-02-16T08:41:39;100511.38;;;11.94;61.11
68822;BME280;55834;50.870;4.606;2024-02-16T08:44:06;100512.00;;;12.25;61.20
68822;BME280;55834;50.870;4.606;2024-02-16T08:46:34;100512.84;;;12.47;60.76
68822;BME280;55834;50.870;4.606;2024-02-16T08:49:00;100518.69;;;11.64;62.65
68822;BME280;55834;50.870;4.606;2024-02-16T08:51:25;100515.41;;;12.05;61.28
68822;BME280;55834;50.870;4.606;2024-02-16T08:53:51;100527.31;;;12.16;60.77
68822;BME280;55834;50.870;4.606;2024-02-16T08:56:16;100520.28;;;11.92;61.49
68822;BME280;55834;50.870;4.606;2024-02-16T08:58:42;100526.34;;;11.95;61.03
68822;BME280;55834;50.870;4.606;2024-02-16T09:01:07;100522.78;;;12.18;61.21
68822;BME280;55834;50.870;4.606;2024-02-16T09:03:32;100519.91;;;12.48;60.85
68822;BME280;55834;50.870;4.606;2024-02-16T09:06:02;100526.38;;;12.17;60.81
68822;BME280;55834;50.870;4.606;2024-02-16T09:08:28;100530.91;;;12.37;61.52
68822;BME280;55834;50.870;4.606;2024-02-16T09:11:01;100538.91;;;12.12;62.13
68822;BME280;55834;50.870;4.606;2024-02-16T09:13:34;100542.09;;;11.99;61.04
68822;BME280;55834;50.870;4.606;2024-02-16T09:16:01;100537.13;;;12.60;60.50
68822;BME280;55834;50.870;4.606;2024-02-16T09:18:27;100545.50;;;12.02;61.05
68822;BME280;55834;50.870;4.606;2024-02-16T09:20:52;100553.06;;;11.88;62.15
68822;BME280;55834;50.870;4.606;2024-02-16T09:23:18;100535.69;;;12.28;61.16
68822;BME280;55834;50.870;4.606;2024-02-16T09:25:43;100552.09;;;12.14;60.85
68822;BME280;55834;50.870;4.606;2024-02-16T09:28:11;100560.16;;;12.11;61.00
68822;BME280;55834;50.870;4.606;2024-02-16T09:30:37;100572.22;;;11.94;61.95
68822;BME280;55834;50.870;4.606;2024-02-16T09:33:02;100572.66;;;12.07;61.18
68822;BME280;55834;50.870;4.606;2024-02-16T09:35:28;100586.28;;;11.71;61.99
68822;BME280;55834;50.870;4.606;2024-02-16T09:37:53;100587.72;;;11.80;61.53
68822;BME280;55834;50.870;4.606;2024-02-16T09:40:19;100594.53;;;11.62;62.48
68822;BME280;55834;50.870;4.606;2024-02-16T09:42:48;100590.47;;;12.26;61.04
68822;BME280;55834;50.870;4.606;2024-02-16T09:45:14;100607.31;;;11.74;61.47
68822;BME280;55834;50.870;4.606;2024-02-16T09:47:43;100605.50;;;11.77;62.29
68822;BME280;55834;50.870;4.606;2024-02-16T09:50:09;100598.25;;;11.57;62.07
68822;BME280;55834;50.870;4.606;2024-02-16T09:52:36;100613.84;;;11.89;61.27
68822;BME280;55834;50.870;4.606;2024-02-16T09:55:02;100605.66;;;12.20;61.53
68822;BME280;55834;50.870;4.606;2024-02-16T09:57:30;100598.19;;;12.08;61.08
68822;BME280;55834;50.870;4.606;2024-02-16T09:59:57;100608.19;;;12.24;61.52
68822;BME280;55834;50.870;4.606;2024-02-16T10:02:24;100618.72;;;12.49;60.04
68822;BME280;55834;50.870;4.606;2024-02-16T10:04:50;100620.31;;;12.53;59.11
68822;BME280;55834;50.870;4.606;2024-02-16T10:07:15;100620.69;;;12.43;59.68
68822;BME280;55834;50.870;4.606;2024-02-16T10:09:40;100624.56;;;12.58;59.22
68822;BME280;55834;50.870;4.606;2024-02-16T10:12:06;100634.41;;;12.53;60.55
68822;BME280;55834;50.870;4.606;2024-02-16T10:14:32;100642.13;;;12.12;60.54
68822;BME280;55834;50.870;4.606;2024-02-16T10:17:02;100640.94;;;12.45;59.69
68822;BME280;55834;50.870;4.606;2024-02-16T10:19:28;100642.47;;;12.50;60.44
68822;BME280;55834;50.870;4.606;2024-02-16T10:22:08;100662.06;;;12.23;60.70
68822;BME280;55834;50.870;4.606;2024-02-16T10:24:33;100660.66;;;12.12;61.44
68822;BME280;55834;50.870;4.606;2024-02-16T10:26:59;100653.25;;;12.46;60.17
68822;BME280;55834;50.870;4.606;2024-02-16T10:29:26;100652.09;;;12.53;60.40
68822;BME280;55834;50.870;4.606;2024-02-16T10:31:52;100655.84;;;12.47;60.59
68822;BME280;55834;50.870;4.606;2024-02-16T10:34:18;100659.50;;;12.68;59.56
68822;BME280;55834;50.870;4.606;2024-02-16T10:36:45;100655.97;;;12.68;60.31
68822;BME280;55834;50.870;4.606;2024-02-16T10:39:11;100674.06;;;12.80;59.66
68822;BME280;55834;50.870;4.606;2024-02-16T10:41:40;100676.28;;;12.43;60.48
68822;BME280;55834;50.870;4.606;2024-02-16T10:44:06;100684.44;;;12.86;60.00
68822;BME280;55834;50.870;4.606;2024-02-16T10:46:32;100691.22;;;12.21;60.76
68822;BME280;55834;50.870;4.606;2024-02-16T10:48:58;100694.00;;;12.41;60.77
68822;BME280;55834;50.870;4.606;2024-02-16T10:51:40;100708.41;;;12.09;61.76
68822;BME280;55834;50.870;4.606;2024-02-16T10:54:06;100697.63;;;12.64;61.20
68822;BME280;55834;50.870;4.606;2024-02-16T10:56:36;100713.06;;;12.28;61.60
68822;BME280;55834;50.870;4.606;2024-02-16T10:59:06;100712.09;;;12.30;61.20
68822;BME280;55834;50.870;4.606;2024-02-16T11:01:40;100718.19;;;12.07;62.05
68822;BME280;55834;50.870;4.606;2024-02-16T11:04:06;100725.22;;;12.08;61.96
68822;BME280;55834;50.870;4.606;2024-02-16T11:06:48;100723.75;;;11.17;64.91
68822;BME280;55834;50.870;4.606;2024-02-16T11:09:30;100727.31;;;11.99;64.13
68822;BME280;55834;50.870;4.606;2024-02-16T11:11:59;100730.31;;;11.88;63.54
68822;BME280;55834;50.870;4.606;2024-02-16T11:14:40;100730.91;;;12.21;62.96
68822;BME280;55834;50.870;4.606;2024-02-16T11:17:12;100730.88;;;12.48;62.40
68822;BME280;55834;50.870;4.606;2024-02-16T11:19:42;100732.00;;;11.90;63.86
68822;BME280;55834;50.870;4.606;2024-02-16T11:22:08;100722.59;;;12.07;63.71
68822;BME280;55834;50.870;4.606;2024-02-16T11:24:43;100733.47;;;11.99;63.69
68822;BME280;55834;50.870;4.606;2024-02-16T11:27:10;100743.56;;;12.38;62.93
68822;BME280;55834;50.870;4.606;2024-02-16T11:29:36;100742.59;;;12.40;63.36
68822;BME280;55834;50.870;4.606;2024-02-16T11:32:04;100742.72;;;12.62;63.23
68822;BME280;55834;50.870;4.606;2024-02-16T11:34:30;100750.94;;;12.03;63.53
68822;BME280;55834;50.870;4.606;2024-02-16T11:36:57;100754.88;;;12.68;63.21
68822;BME280;55834;50.870;4.606;2024-02-16T11:39:23;100763.28;;;12.79;62.58
68822;BME280;55834;50.870;4.606;2024-02-16T11:42:02;100769.44;;;12.30;63.13
68822;BME280;55834;50.870;4.606;2024-02-16T11:44:31;100759.88;;;12.26;63.58
68822;BME280;55834;50.870;4.606;2024-02-16T11:46:58;100761.88;;;11.92;65.57
68822;BME280;55834;50.870;4.606;2024-02-16T11:49:23;100768.09;;;12.43;64.64
68822;BME280;55834;50.870;4.606;2024-02-16T11:51:49;100771.03;;;12.60;64.25
68822;BME280;55834;50.870;4.606;2024-02-16T11:54:15;100765.38;;;12.45;63.40
68822;BME280;55834;50.870;4.606;2024-02-16T11:56:44;100772.94;;;12.80;63.45
68822;BME280;55834;50.870;4.606;2024-02-16T11:59:13;100765.97;;;12.53;63.28
68822;BME280;55834;50.870;4.606;2024-02-16T12:01:48;100773.41;;;12.92;64.08
68822;BME280;55834;50.870;4.606;2024-02-16T12:06:46;100779.47;;;12.72;63.57
68822;BME280;55834;50.870;4.606;2024-02-16T12:09:15;100782.47;;;12.86;63.54
68822;BME280;55834;50.870;4.606;2024-02-16T12:11:41;100779.19;;;12.79;62.88
68822;BME280;55834;50.870;4.606;2024-02-16T12:14:07;100788.06;;;12.27;64.34
68822;BME280;55834;50.870;4.606;2024-02-16T12:16:32;100791.72;;;12.74;64.16
68822;BME280;55834;50.870;4.606;2024-02-16T12:19:07;100794.03;;;12.07;64.82
68822;BME280;55834;50.870;4.606;2024-02-16T12:21:33;100802.78;;;12.35;64.78
68822;BME280;55834;50.870;4.606;2024-02-16T12:23:59;100801.69;;;12.41;64.49
68822;BME280;55834;50.870;4.606;2024-02-16T12:26:24;100803.53;;;12.14;64.43
68822;BME280;55834;50.870;4.606;2024-02-16T12:28:50;100809.38;;;12.49;64.46
68822;BME280;55834;50.870;4.606;2024-02-16T12:31:19;100817.16;;;12.53;63.88
68822;BME280;55834;50.870;4.606;2024-02-16T12:33:45;100815.50;;;12.76;64.60
68822;BME280;55834;50.870;4.606;2024-02-16T12:36:10;100820.25;;;12.14;63.98
68822;BME280;55834;50.870;4.606;2024-02-16T12:38:36;100821.53;;;12.54;65.27
68822;BME280;55834;50.870;4.606;2024-02-16T12:41:01;100832.56;;;12.42;63.71
68822;BME280;55834;50.870;4.606;2024-02-16T12:43:26;100829.75;;;12.47;64.88
68822;BME280;55834;50.870;4.606;2024-02-16T12:45:52;100834.44;;;12.38;65.31
68822;BME280;55834;50.870;4.606;2024-02-16T12:48:17;100840.63;;;12.12;64.63